createdAt,value
2022-09-07T00:01:45.655Z,28.60
2022-09-07T00:04:49.122Z,33.40
2022-09-07T00:07:54.915Z,28.60
2022-09-07T00:11:00.147Z,29.00
2022-09-07T00:14:03.475Z,32.60
2022-09-07T00:17:08.202Z,35.50
2022-09-07T00:20:13.439Z,31.00
2022-09-07T00:23:16.750Z,25.00
2022-09-07T00:26:23.248Z,31.60
2022-09-07T00:29:26.697Z,58.17
2022-09-07T00:32:32.273Z,33.00
2022-09-07T00:35:40.206Z,38.17
2022-09-07T00:38:43.739Z,30.17
2022-09-07T00:41:47.101Z,30.75
2022-09-07T00:45:10.184Z,32.40
2022-09-07T00:48:19.360Z,54.25
2022-09-07T00:51:27.594Z,35.33
2022-09-07T00:54:35.199Z,43.50
2022-09-07T00:57:41.393Z,39.33
2022-09-07T01:00:47.546Z,28.50
2022-09-07T01:03:54.910Z,71.83
2022-09-07T01:06:58.622Z,33.33
2022-09-07T01:10:03.140Z,32.17
2022-09-07T01:13:07.355Z,37.17
2022-09-07T01:16:17.988Z,37.80
2022-09-07T01:20:00.349Z,30.40
2022-09-07T01:23:38.948Z,31.83
2022-09-07T01:27:12.022Z,31.17
2022-09-07T01:30:20.130Z,30.75
2022-09-07T01:33:38.790Z,28.00
2022-09-07T01:36:50.964Z,33.00
2022-09-07T01:40:04.200Z,60.50
2022-09-07T01:43:15.117Z,40.67
2022-09-07T01:46:25.362Z,33.60
2022-09-07T01:49:36.314Z,35.86
2022-09-07T01:52:45.512Z,32.50
2022-09-07T01:55:53.368Z,39.00
2022-09-07T01:59:00.604Z,39.17
2022-09-07T02:02:10.544Z,31.33
2022-09-07T02:05:19.509Z,33.00
2022-09-07T02:08:29.879Z,31.20
2022-09-07T02:11:38.498Z,49.67
2022-09-07T02:14:49.378Z,33.60
2022-09-07T02:18:03.679Z,35.00
2022-09-07T02:21:11.403Z,30.60
2022-09-07T02:24:21.677Z,33.00
2022-09-07T02:27:30.427Z,31.00
2022-09-07T02:30:33.813Z,33.00
2022-09-07T02:33:38.864Z,52.00
2022-09-07T02:36:49.647Z,55.67
2022-09-07T02:39:52.976Z,36.80
2022-09-07T02:42:58.241Z,35.00
2022-09-07T02:46:25.040Z,31.40
2022-09-07T02:49:55.697Z,34.60
2022-09-07T02:53:16.404Z,56.50
2022-09-07T02:56:36.529Z,39.33
2022-09-07T02:59:53.339Z,34.80
2022-09-07T03:03:09.504Z,32.33
2022-09-07T03:06:22.463Z,34.40
2022-09-07T03:09:30.754Z,30.67
2022-09-07T03:12:42.045Z,35.43
2022-09-07T03:15:45.615Z,28.40
2022-09-07T03:18:48.930Z,28.33
2022-09-07T03:21:54.138Z,28.50
2022-09-07T03:24:57.333Z,28.60
2022-09-07T03:28:00.639Z,29.00
2022-09-07T03:31:04.095Z,27.20
2022-09-07T03:34:07.893Z,28.17
2022-09-07T03:37:12.498Z,33.00
2022-09-07T03:40:17.460Z,29.20
2022-09-07T03:43:20.761Z,34.00
2022-09-07T03:46:24.091Z,39.00
2022-09-07T03:49:27.451Z,33.83
2022-09-07T03:52:32.392Z,30.00
2022-09-07T03:55:35.711Z,33.83
2022-09-07T03:58:39.209Z,27.50
2022-09-07T04:01:42.557Z,34.00
2022-09-07T04:04:46.913Z,31.00
2022-09-07T04:07:52.647Z,37.20
2022-09-07T04:10:57.419Z,36.20
2022-09-07T04:14:00.682Z,33.00
2022-09-07T04:17:04.235Z,35.83
2022-09-07T04:20:08.932Z,33.00
2022-09-07T04:23:14.169Z,32.40
2022-09-07T04:26:20.499Z,31.75
2022-09-07T04:29:24.114Z,34.00
2022-09-07T04:32:27.414Z,38.00
2022-09-07T04:35:30.700Z,39.83
2022-09-07T04:38:35.654Z,32.60
2022-09-07T04:41:39.065Z,31.00
2022-09-07T04:44:42.387Z,30.33
2022-09-07T04:47:48.880Z,33.50
2022-09-07T04:50:53.154Z,41.00
2022-09-07T04:53:59.963Z,42.67
2022-09-07T04:57:03.210Z,34.00
2022-09-07T05:00:09.399Z,32.20
2022-09-07T05:03:12.733Z,34.00
2022-09-07T05:06:16.692Z,31.40
2022-09-07T05:09:21.456Z,32.20
2022-09-07T05:12:25.368Z,32.20
2022-09-07T05:15:30.181Z,28.67
2022-09-07T05:18:34.256Z,34.80
2022-09-07T05:21:37.527Z,30.80
2022-09-07T05:24:42.379Z,47.00
2022-09-07T05:27:46.872Z,32.50
2022-09-07T05:34:31.321Z,41.83
2022-09-07T05:37:35.772Z,40.60
2022-09-07T05:40:41.177Z,33.20
2022-09-07T05:47:08.783Z,33.00
2022-09-07T05:50:12.136Z,43.83
2022-09-07T05:53:15.654Z,34.00
2022-09-07T05:56:20.320Z,26.80
2022-09-07T05:59:23.711Z,34.33
2022-09-07T06:02:39.904Z,39.33
2022-09-07T06:05:43.398Z,62.50
2022-09-07T06:08:49.139Z,36.25
2022-09-07T06:11:53.866Z,33.50
2022-09-07T06:14:57.202Z,35.00
2022-09-07T06:18:00.608Z,30.20
2022-09-07T06:21:04.464Z,33.00
2022-09-07T06:24:08.379Z,36.75
2022-09-07T06:27:13.392Z,32.00
2022-09-07T06:30:16.891Z,36.17
2022-09-07T06:33:21.979Z,39.83
2022-09-07T06:36:28.379Z,24.83
2022-09-07T06:39:31.960Z,31.67
2022-09-07T06:42:36.672Z,35.00
2022-09-07T06:45:39.945Z,29.00
2022-09-07T06:48:44.529Z,40.71
2022-09-07T06:51:47.884Z,31.33
2022-09-07T06:58:03.144Z,24.20
2022-09-07T07:01:07.903Z,33.00
2022-09-07T07:04:11.325Z,34.00
2022-09-07T07:07:15.815Z,33.00
2022-09-07T07:10:24.325Z,34.33
2022-09-07T07:13:31.818Z,32.50
2022-09-07T07:16:37.325Z,32.40
2022-09-07T07:19:40.734Z,28.60
2022-09-07T07:22:47.247Z,31.80
2022-09-07T07:25:50.559Z,25.67
2022-09-07T07:32:04.139Z,31.00
2022-09-07T07:35:08.935Z,28.00
2022-09-07T07:52:49.976Z,43.00
2022-09-07T07:54:55.439Z,32.00
2022-09-07T07:57:58.674Z,30.00
2022-09-07T08:01:05.474Z,23.40
2022-09-07T08:04:08.738Z,35.40
2022-09-07T08:07:13.046Z,27.40
2022-09-07T08:10:16.440Z,33.80
2022-09-07T08:13:21.521Z,18.50
2022-09-07T08:16:26.675Z,28.00
2022-09-07T08:19:29.998Z,26.00
2022-09-07T08:22:34.952Z,31.00
2022-09-07T08:25:38.299Z,22.00
2022-09-07T08:28:45.501Z,28.00
2022-09-07T08:31:50.356Z,32.40
2022-09-07T08:34:53.721Z,24.20
2022-09-07T08:37:57.069Z,33.00
2022-09-07T08:41:01.318Z,29.20
2022-09-07T08:44:07.042Z,23.20
2022-09-07T08:47:29.592Z,28.00
2022-09-07T08:50:39.089Z,28.40
2022-09-07T08:53:46.964Z,23.00
2022-09-07T09:00:18.859Z,29.00
2022-09-07T09:03:29.832Z,27.00
2022-09-07T09:06:48.507Z,28.00
2022-09-07T09:10:21.666Z,20.50
2022-09-07T09:13:34.764Z,30.20
2022-09-07T09:16:44.370Z,19.50
2022-09-07T09:20:01.575Z,29.25
2022-09-07T09:23:13.671Z,29.00
2022-09-07T09:26:23.751Z,25.60
2022-09-07T09:29:27.083Z,24.00
2022-09-07T09:32:36.182Z,25.60
2022-09-07T09:35:41.422Z,23.40
2022-09-07T09:38:44.920Z,25.50
2022-09-07T09:41:48.462Z,26.00
2022-09-07T09:44:52.321Z,23.75
2022-09-07T09:47:56.169Z,17.80
2022-09-07T09:54:33.331Z,25.00
2022-09-07T10:01:24.593Z,22.20
2022-09-07T10:04:33.935Z,26.80
2022-09-07T10:07:38.662Z,13.40
2022-09-07T10:10:51.871Z,25.00
2022-09-07T10:13:57.872Z,20.75
2022-09-07T10:17:02.875Z,23.00
2022-09-07T10:20:31.289Z,24.00
2022-09-07T10:23:36.939Z,22.50
2022-09-07T10:26:42.070Z,18.50
2022-09-07T10:29:45.368Z,17.25
2022-09-07T10:33:00.240Z,25.00
2022-09-07T10:36:12.397Z,23.00
2022-09-07T10:39:23.125Z,21.33
2022-09-07T10:42:31.035Z,20.80
2022-09-07T10:45:50.179Z,22.00
2022-09-07T10:49:07.071Z,20.00
2022-09-07T10:52:16.683Z,18.40
2022-09-07T10:55:29.012Z,18.00
2022-09-07T10:59:03.898Z,16.00
2022-09-07T11:02:18.009Z,22.60
2022-09-07T11:05:36.107Z,18.00
2022-09-07T11:09:20.249Z,18.00
2022-09-07T11:12:30.245Z,16.33
2022-09-07T11:15:38.015Z,16.00
2022-09-07T11:18:46.086Z,13.60
2022-09-07T11:21:59.936Z,13.40
2022-09-07T11:25:30.200Z,14.00
2022-09-07T11:28:45.344Z,15.60
2022-09-07T11:31:53.254Z,14.00
2022-09-07T11:35:02.478Z,20.20
2022-09-07T11:38:14.899Z,15.00
2022-09-07T11:41:29.002Z,16.00
2022-09-07T11:44:47.769Z,17.00
2022-09-07T11:47:59.267Z,17.00
2022-09-07T11:51:07.217Z,14.75
2022-09-07T11:54:24.639Z,15.20
2022-09-07T11:57:44.989Z,16.33
2022-09-07T12:01:07.226Z,12.00
2022-09-07T12:04:29.559Z,14.75
2022-09-07T12:07:52.108Z,20.00
2022-09-07T12:11:25.647Z,15.50
2022-09-07T12:14:41.049Z,19.80
2022-09-07T12:18:02.011Z,14.00
2022-09-07T12:21:05.347Z,16.60
2022-09-07T12:24:43.531Z,17.00
2022-09-07T12:27:46.795Z,16.00
2022-09-07T12:30:57.825Z,16.60
2022-09-07T12:34:34.318Z,18.60
2022-09-07T12:37:44.600Z,19.60
2022-09-07T12:40:59.916Z,16.50
2022-09-07T12:44:08.677Z,18.00
2022-09-07T12:47:31.057Z,18.00
2022-09-07T12:50:39.405Z,16.00
2022-09-07T12:53:57.796Z,17.50
2022-09-07T12:57:31.874Z,18.00
2022-09-07T13:00:48.785Z,16.00
2022-09-07T13:04:20.278Z,19.75
2022-09-07T13:07:49.000Z,17.00
2022-09-07T13:10:53.781Z,19.40
2022-09-07T13:14:03.731Z,17.40
2022-09-07T13:17:42.517Z,19.00
2022-09-07T13:20:46.752Z,18.20
2022-09-07T13:24:46.043Z,14.80
2022-09-07T13:27:56.905Z,18.00
2022-09-07T13:31:17.844Z,20.00
2022-09-07T13:34:47.054Z,20.00
2022-09-07T13:37:55.908Z,16.40
2022-09-07T13:41:07.330Z,20.40
2022-09-07T13:44:25.630Z,19.00
2022-09-07T13:47:53.547Z,20.00
2022-09-07T13:51:03.890Z,19.75
2022-09-07T13:54:15.839Z,20.00
2022-09-07T13:57:28.148Z,21.00
2022-09-07T14:00:33.074Z,19.60
2022-09-07T14:03:45.370Z,10.00
2022-09-07T14:06:48.931Z,27.60
2022-09-07T14:10:07.156Z,13.60
2022-09-07T14:13:14.189Z,22.00
2022-09-07T14:16:19.156Z,24.80
2022-09-07T14:19:26.038Z,24.50
2022-09-07T14:22:34.139Z,23.75
2022-09-07T14:29:01.609Z,20.00
2022-09-07T14:32:14.610Z,22.00
2022-09-07T14:35:20.214Z,24.00
2022-09-07T14:41:51.254Z,26.75
2022-09-07T14:45:19.820Z,29.20
2022-09-07T14:48:32.226Z,23.80
2022-09-07T14:51:37.124Z,26.00
2022-09-07T14:54:41.281Z,23.00
2022-09-07T14:57:44.770Z,29.00
2022-09-07T15:01:37.186Z,31.40
2022-09-07T15:04:20.339Z,27.40
2022-09-07T15:07:29.700Z,29.50
2022-09-07T15:10:37.448Z,22.60
2022-09-07T15:13:43.864Z,28.00
2022-09-07T15:20:41.774Z,30.00
2022-09-07T15:23:49.645Z,29.00
2022-09-07T15:27:08.764Z,26.80
2022-09-07T15:30:12.914Z,31.00
2022-09-07T15:33:16.143Z,30.00
2022-09-07T15:36:20.814Z,28.00
2022-09-07T15:39:26.665Z,35.00
2022-09-07T15:45:54.558Z,29.80
2022-09-07T15:48:58.427Z,27.00
2022-09-07T15:52:05.370Z,31.00
2022-09-07T15:55:11.382Z,26.00
2022-09-07T15:58:14.691Z,28.75
2022-09-07T16:04:41.330Z,28.20
2022-09-07T16:11:18.513Z,28.00
2022-09-07T16:14:22.383Z,28.20
2022-09-07T16:17:26.888Z,30.00
2022-09-07T16:20:32.214Z,28.00
2022-09-07T16:23:38.250Z,29.50
2022-09-07T16:26:41.526Z,28.00
2022-09-07T16:29:45.287Z,33.20
2022-09-07T16:32:50.966Z,27.00
2022-09-07T16:35:59.377Z,29.20
2022-09-07T16:39:04.598Z,37.00
2022-09-07T16:42:08.973Z,23.40
2022-09-07T16:48:37.540Z,32.00
2022-09-07T16:51:41.679Z,32.00
2022-09-07T16:54:46.357Z,29.00
2022-09-07T17:01:15.174Z,32.00
2022-09-07T17:04:18.786Z,31.40
2022-09-07T17:07:22.442Z,31.75
2022-09-07T17:10:28.802Z,29.00
2022-09-07T17:13:32.763Z,28.80
2022-09-07T17:16:38.295Z,33.00
2022-09-07T17:19:41.801Z,29.00
2022-09-07T17:22:45.289Z,27.40
2022-09-07T17:25:50.277Z,29.00
2022-09-07T17:28:55.513Z,23.40
2022-09-07T17:35:23.481Z,29.00
2022-09-07T17:41:52.920Z,32.60
2022-09-07T17:44:56.381Z,33.40
2022-09-07T17:47:59.706Z,30.75
2022-09-07T17:51:03.928Z,33.20
2022-09-07T17:54:11.842Z,31.00
2022-09-07T17:57:16.660Z,32.00
2022-09-07T18:00:20.008Z,32.75
2022-09-07T18:03:23.636Z,31.00
2022-09-07T18:06:27.407Z,30.00
2022-09-07T18:09:30.619Z,33.00
2022-09-07T18:12:35.246Z,31.00
2022-09-07T18:15:44.114Z,33.00
2022-09-07T18:18:48.499Z,31.40
2022-09-07T18:21:52.063Z,30.80
2022-09-07T18:24:55.455Z,31.00
2022-09-07T18:31:26.176Z,31.00
2022-09-07T18:34:31.488Z,31.20
2022-09-07T18:37:35.232Z,35.00
2022-09-07T18:40:38.512Z,32.60
2022-09-07T18:43:44.489Z,33.20
2022-09-07T18:46:47.934Z,34.00
2022-09-07T18:49:51.430Z,33.00
2022-09-07T18:52:59.174Z,31.40
2022-09-07T18:56:11.583Z,34.75
2022-09-07T18:59:16.646Z,43.75
2022-09-07T19:02:20.306Z,33.00
2022-09-07T19:08:48.613Z,38.00
2022-09-07T19:11:51.872Z,32.40
2022-09-07T19:14:56.600Z,34.20
2022-09-07T19:17:59.847Z,33.00
2022-09-07T19:21:04.123Z,51.80
2022-09-07T19:24:09.056Z,38.80
2022-09-07T19:27:12.402Z,31.75
2022-09-07T19:30:17.517Z,34.50
2022-09-07T19:33:21.231Z,44.80
2022-09-07T19:36:25.127Z,34.00
2022-09-07T19:39:28.547Z,36.80
2022-09-07T19:42:32.086Z,35.00
2022-09-07T19:45:40.874Z,42.00
2022-09-07T19:48:44.131Z,35.00
2022-09-07T19:51:49.511Z,37.20
2022-09-07T19:54:53.065Z,36.60
2022-09-07T19:57:56.259Z,38.60
2022-09-07T20:01:01.066Z,39.20
2022-09-07T20:04:07.162Z,34.80
2022-09-07T20:07:10.568Z,34.00
2022-09-07T20:10:13.955Z,36.25
2022-09-07T20:13:17.543Z,36.60
2022-09-07T20:16:22.581Z,33.50
2022-09-07T20:19:26.272Z,37.00
2022-09-07T20:22:29.670Z,41.20
2022-09-07T20:25:33.270Z,40.00
2022-09-07T20:28:37.918Z,34.60
2022-09-07T20:31:43.260Z,45.40
2022-09-07T20:34:47.176Z,35.00
2022-09-07T20:37:50.487Z,39.80
2022-09-07T20:40:55.513Z,35.60
2022-09-07T20:44:00.186Z,40.00
2022-09-07T20:47:05.003Z,34.20
2022-09-07T20:50:09.102Z,39.40
2022-09-07T20:53:12.678Z,34.20
2022-09-07T20:56:17.464Z,37.00
2022-09-07T20:59:21.329Z,34.25
2022-09-07T21:02:26.059Z,34.00
2022-09-07T21:05:29.379Z,37.80
2022-09-07T21:08:36.347Z,34.60
2022-09-07T21:11:45.011Z,34.00
2022-09-07T21:14:50.677Z,37.20
2022-09-07T21:17:55.271Z,44.00
2022-09-07T21:21:18.771Z,32.00
2022-09-07T21:24:24.441Z,34.20
2022-09-07T21:27:27.720Z,33.60
2022-09-07T21:30:31.373Z,34.75
2022-09-07T21:33:37.716Z,34.25
2022-09-07T21:36:41.333Z,35.00
2022-09-07T21:39:44.602Z,28.00
2022-09-07T21:42:47.864Z,34.00
2022-09-07T21:45:51.648Z,33.40
2022-09-07T21:48:57.465Z,27.40
2022-09-07T21:52:00.806Z,39.20
2022-09-07T21:55:04.080Z,38.00
2022-09-07T21:58:08.070Z,31.80
2022-09-07T22:01:12.952Z,32.60
2022-09-07T22:04:17.629Z,33.00
2022-09-07T22:07:20.906Z,39.00
2022-09-07T22:10:24.156Z,34.60
2022-09-07T22:13:27.718Z,33.50
2022-09-07T22:16:31.803Z,36.40
2022-09-07T22:19:36.558Z,37.20
2022-09-07T22:22:39.745Z,35.00
2022-09-07T22:25:52.618Z,48.75
2022-09-07T22:28:59.159Z,36.40
2022-09-07T22:32:02.581Z,39.00
2022-09-07T22:35:08.263Z,34.00
2022-09-07T22:38:11.621Z,35.00
2022-09-07T22:41:16.746Z,34.60
2022-09-07T22:44:20.185Z,41.80
2022-09-07T22:47:23.404Z,32.00
2022-09-07T22:50:28.448Z,31.80
2022-09-07T22:53:34.208Z,37.00
2022-09-07T22:56:38.381Z,35.00
2022-09-07T22:59:41.923Z,36.80
2022-09-07T23:02:45.358Z,33.00
2022-09-07T23:05:49.991Z,37.40
2022-09-07T23:08:54.510Z,31.25
2022-09-07T23:11:57.726Z,34.00
2022-09-07T23:15:01.049Z,33.00
2022-09-07T23:18:04.245Z,38.00
2022-09-07T23:21:09.690Z,34.00
2022-09-07T23:24:14.575Z,36.00
2022-09-07T23:27:17.820Z,35.40
2022-09-07T23:30:21.104Z,33.00
2022-09-07T23:33:24.559Z,26.40
2022-09-07T23:36:29.909Z,31.20
2022-09-07T23:39:33.405Z,34.40
2022-09-07T23:42:36.993Z,35.00
2022-09-07T23:45:40.291Z,34.20
2022-09-07T23:48:44.998Z,35.60
2022-09-07T23:51:49.974Z,33.40
2022-09-07T23:54:53.279Z,34.00
2022-09-07T23:57:56.520Z,40.25
